createdAt,value
2018-11-10T00:00:44.023Z,8.70
2018-11-10T00:03:17.627Z,8.60
2018-11-10T00:05:53.682Z,8.60
2018-11-10T00:08:28.826Z,8.60
2018-11-10T00:11:03.750Z,8.70
2018-11-10T00:13:39.803Z,8.80
2018-11-10T00:16:16.682Z,8.80
2018-11-10T00:18:51.512Z,8.70
2018-11-10T00:21:27.203Z,8.60
2018-11-10T00:24:02.808Z,8.70
2018-11-10T00:26:36.817Z,8.80
2018-11-10T00:29:11.444Z,8.80
2018-11-10T00:31:46.883Z,8.80
2018-11-10T00:34:22.735Z,8.60
2018-11-10T00:36:58.794Z,8.80
2018-11-10T00:39:36.693Z,8.80
2018-11-10T00:42:24.476Z,8.80
2018-11-10T00:45:03.767Z,8.90
2018-11-10T00:47:39.815Z,8.70
2018-11-10T00:50:17.725Z,8.80
2018-11-10T00:52:54.800Z,8.90
2018-11-10T00:55:29.835Z,8.90
2018-11-10T00:58:06.707Z,8.90
2018-11-10T01:00:41.744Z,8.80
2018-11-10T01:03:16.777Z,8.70
2018-11-10T01:05:51.814Z,8.60
2018-11-10T01:08:28.245Z,8.50
2018-11-10T01:11:03.720Z,8.40
2018-11-10T01:13:40.802Z,8.60
2018-11-10T01:16:15.834Z,8.60
2018-11-10T01:18:51.485Z,8.60
2018-11-10T01:21:28.974Z,8.60
2018-11-10T01:24:04.829Z,8.50
2018-11-10T01:26:39.858Z,8.50
2018-11-10T01:29:16.735Z,8.60
2018-11-10T01:31:52.792Z,8.60
2018-11-10T01:34:28.238Z,8.50
2018-11-10T01:37:03.885Z,8.50
2018-11-10T01:39:39.739Z,8.60
2018-11-10T01:42:17.272Z,8.40
2018-11-10T01:44:52.877Z,8.30
2018-11-10T01:47:28.731Z,8.30
2018-11-10T01:50:03.760Z,8.40
2018-11-10T01:52:39.818Z,8.40
2018-11-10T01:55:14.852Z,8.50
2018-11-10T01:57:49.684Z,8.50
2018-11-10T02:00:26.562Z,8.60
2018-11-10T02:03:02.823Z,8.70
2018-11-10T02:05:52.607Z,8.60
2018-11-10T02:08:27.840Z,8.60
2018-11-10T02:11:03.692Z,8.60
2018-11-10T02:13:39.750Z,8.60
2018-11-10T02:16:15.804Z,8.60
2018-11-10T02:18:50.841Z,8.60
2018-11-10T02:21:26.690Z,8.60
2018-11-10T02:24:01.319Z,8.70
2018-11-10T02:26:36.758Z,8.60
2018-11-10T02:29:12.815Z,8.60
2018-11-10T02:31:48.882Z,8.70
2018-11-10T02:34:24.273Z,8.60
2018-11-10T02:36:58.739Z,8.70
2018-11-10T02:39:33.776Z,8.70
2018-11-10T02:42:09.827Z,8.70
2018-11-10T02:44:44.862Z,8.70
2018-11-10T02:47:22.762Z,8.70
2018-11-10T02:49:59.644Z,8.70
2018-11-10T02:52:34.888Z,8.70
2018-11-10T02:55:11.753Z,8.80
2018-11-10T02:57:46.789Z,8.80
2018-11-10T03:00:22.845Z,8.80
2018-11-10T03:02:58.497Z,8.90
2018-11-10T03:05:34.753Z,8.80
2018-11-10T03:08:11.838Z,8.70
2018-11-10T03:10:48.364Z,8.70
2018-11-10T03:13:24.769Z,8.70
2018-11-10T03:15:58.784Z,8.70
2018-11-10T03:18:34.634Z,8.70
2018-11-10T03:21:09.873Z,8.70
2018-11-10T03:23:45.520Z,8.80
2018-11-10T03:26:21.782Z,8.60
2018-11-10T03:28:56.817Z,8.70
2018-11-10T03:31:32.258Z,8.60
2018-11-10T03:34:06.887Z,8.60
2018-11-10T03:36:41.711Z,8.70
2018-11-10T03:39:18.791Z,8.70
2018-11-10T03:41:54.861Z,8.70
2018-11-10T03:44:30.707Z,8.60
2018-11-10T03:47:08.813Z,8.60
2018-11-10T03:49:44.866Z,8.70
2018-11-10T03:52:20.717Z,8.80
2018-11-10T03:54:57.802Z,8.70
2018-11-10T03:57:31.813Z,8.60
2018-11-10T04:00:07.054Z,8.70
2018-11-10T04:02:43.724Z,8.70
2018-11-10T04:05:20.395Z,8.70
2018-11-10T04:07:57.266Z,8.70
2018-11-10T04:10:31.895Z,8.70
2018-11-10T04:13:08.323Z,8.80
2018-11-10T04:15:43.802Z,8.80
2018-11-10T04:18:18.837Z,8.80
2018-11-10T04:20:54.893Z,8.80
2018-11-10T04:23:30.132Z,8.80
2018-11-10T04:26:06.804Z,8.80
2018-11-10T04:28:40.813Z,8.90
2018-11-10T04:31:15.643Z,8.90
2018-11-10T04:33:51.907Z,9.00
2018-11-10T04:36:26.941Z,9.00
2018-11-10T04:39:04.326Z,8.90
2018-11-10T04:41:38.848Z,8.90
2018-11-10T04:44:13.882Z,8.90
2018-11-10T04:46:48.913Z,8.90
2018-11-10T04:49:24.766Z,8.90
2018-11-10T04:51:59.800Z,8.90
2018-11-10T04:54:34.016Z,8.80
2018-11-10T04:57:08.639Z,8.70
2018-11-10T04:59:42.850Z,8.70
2018-11-10T05:02:18.910Z,8.60
2018-11-10T05:04:54.150Z,8.50
2018-11-10T05:07:28.980Z,8.50
2018-11-10T05:10:03.810Z,8.60
2018-11-10T05:12:39.252Z,8.60
2018-11-10T05:15:15.921Z,8.50
2018-11-10T05:17:51.160Z,8.40
2018-11-10T05:20:24.760Z,8.60
2018-11-10T05:22:58.973Z,8.60
2018-11-10T05:25:34.827Z,8.60
2018-11-10T05:28:10.338Z,8.60
2018-11-10T05:30:44.896Z,8.60
2018-11-10T05:33:19.927Z,8.50
2018-11-10T05:35:54.758Z,8.30
2018-11-10T05:38:30.811Z,8.30
2018-11-10T05:41:07.281Z,8.30
2018-11-10T05:43:43.135Z,8.40
2018-11-10T05:46:18.345Z,8.40
2018-11-10T05:48:54.840Z,8.30
2018-11-10T05:51:30.895Z,8.40
2018-11-10T05:54:05.931Z,8.40
2018-11-10T05:56:41.350Z,8.50
2018-11-10T05:59:16.814Z,8.40
2018-11-10T06:01:53.693Z,8.30
2018-11-10T06:04:29.749Z,8.40
2018-11-10T06:07:05.807Z,8.20
2018-11-10T06:09:40.650Z,8.30
2018-11-10T06:12:15.872Z,8.30
2018-11-10T06:14:53.982Z,8.30
2018-11-10T06:17:30.854Z,8.30
2018-11-10T06:20:05.894Z,8.40
2018-11-10T06:39:59.876Z,8.40
2018-11-10T06:42:36.752Z,8.30
2018-11-10T07:02:30.736Z,8.40
2018-11-10T07:05:07.813Z,8.30
2018-11-10T07:07:45.921Z,8.40
2018-11-10T07:10:21.980Z,8.10
2018-11-10T07:30:18.009Z,8.00
2018-11-10T07:50:17.932Z,8.30
2018-11-10T08:13:01.077Z,8.30
2018-11-10T08:15:38.979Z,8.40
2018-11-10T08:18:14.014Z,8.50
2018-11-10T08:38:18.853Z,8.60
2018-11-10T08:40:55.416Z,8.70
2018-11-10T09:00:49.917Z,9.20
2018-11-10T09:03:28.024Z,9.40
2018-11-10T09:06:06.435Z,9.30
2018-11-10T09:08:49.624Z,9.30
2018-11-10T09:11:38.938Z,9.40
2018-11-10T09:31:33.526Z,9.70
2018-11-10T09:34:09.788Z,9.60
2018-11-10T09:54:16.690Z,10.10
2018-11-10T09:56:51.911Z,9.90
2018-11-10T09:59:27.765Z,9.80
2018-11-10T10:02:05.039Z,9.80
2018-11-10T10:04:45.005Z,9.70
2018-11-10T10:07:21.057Z,9.70
2018-11-10T10:10:02.039Z,9.70
2018-11-10T10:12:37.068Z,9.70
2018-11-10T10:15:15.985Z,9.70
2018-11-10T10:17:51.841Z,9.70
2018-11-10T10:20:39.984Z,9.80
2018-11-10T10:23:17.060Z,9.90
2018-11-10T10:25:51.891Z,9.90
2018-11-10T10:28:27.218Z,9.90
2018-11-10T10:31:02.981Z,9.90
2018-11-10T10:33:38.221Z,9.90
2018-11-10T10:36:14.079Z,9.90
2018-11-10T10:39:01.405Z,9.90
2018-11-10T10:41:38.084Z,9.90
2018-11-10T10:44:18.632Z,10.10
2018-11-10T10:46:54.073Z,10.10
2018-11-10T10:49:30.335Z,10.10
2018-11-10T10:52:05.980Z,10.10
2018-11-10T10:54:49.012Z,10.20
2018-11-10T10:57:24.037Z,10.30
2018-11-10T11:00:00.101Z,10.10
2018-11-10T11:04:42.111Z,10.20
2018-11-10T11:07:18.978Z,10.30
2018-11-10T11:09:54.016Z,10.20
2018-11-10T11:12:29.461Z,10.10
2018-11-10T11:15:05.390Z,10.10
2018-11-10T11:17:41.508Z,10.10
2018-11-10T11:20:20.086Z,10.20
2018-11-10T11:22:55.119Z,10.30
2018-11-10T11:25:31.996Z,10.20
2018-11-10T11:28:08.465Z,10.40
2018-11-10T11:30:43.091Z,10.50
2018-11-10T11:33:18.125Z,10.60
2018-11-10T11:35:51.929Z,10.70
2018-11-10T11:38:26.970Z,10.70
2018-11-10T11:41:03.908Z,10.50
2018-11-10T11:43:40.102Z,10.50
2018-11-10T11:46:32.140Z,10.60
2018-11-10T11:49:10.034Z,10.50
2018-11-10T11:51:46.093Z,10.60
2018-11-10T11:54:22.148Z,10.70
2018-11-10T11:56:56.977Z,10.80
2018-11-10T11:59:33.034Z,10.90
2018-11-10T12:02:09.143Z,11.00
2018-11-10T12:04:45.150Z,11.20
2018-11-10T12:07:20.183Z,11.20
2018-11-10T12:09:55.220Z,11.20
2018-11-10T12:12:32.095Z,11.30
2018-11-10T12:15:08.203Z,11.20
2018-11-10T12:18:08.995Z,11.10
2018-11-10T12:20:44.913Z,11.20
2018-11-10T12:23:23.152Z,11.20
2018-11-10T12:25:59.210Z,11.10
2018-11-10T12:28:37.110Z,11.10
2018-11-10T12:31:13.165Z,11.00
2018-11-10T12:33:49.225Z,11.00
2018-11-10T12:36:27.333Z,10.90
2018-11-10T12:39:17.109Z,10.90
2018-11-10T12:41:53.167Z,10.90
2018-11-10T12:44:29.223Z,10.90
2018-11-10T12:47:10.198Z,10.70
2018-11-10T12:49:49.122Z,10.70
2018-11-10T12:52:26.210Z,10.80
2018-11-10T12:55:01.278Z,10.80
2018-11-10T12:57:35.250Z,10.90
2018-11-10T13:17:27.684Z,10.90
2018-11-10T13:37:22.197Z,11.00
2018-11-10T13:39:57.441Z,11.10
2018-11-10T13:42:33.669Z,11.20
2018-11-10T13:45:12.416Z,11.20
2018-11-10T13:48:05.281Z,11.30
2018-11-10T14:08:00.063Z,11.20
2018-11-10T14:10:58.641Z,11.20
2018-11-10T14:33:50.678Z,11.60
2018-11-10T14:53:44.591Z,11.20
2018-11-10T14:56:21.255Z,11.20
2018-11-10T15:19:03.590Z,11.20
2018-11-10T15:21:38.414Z,11.20
2018-11-10T15:24:14.472Z,11.20
2018-11-10T15:26:50.334Z,11.10
2018-11-10T15:46:44.516Z,11.00
2018-11-10T15:49:25.284Z,11.10
2018-11-10T15:52:01.136Z,11.00
2018-11-10T15:54:35.143Z,11.10
2018-11-10T15:57:12.244Z,11.00
2018-11-10T15:59:47.257Z,10.90
2018-11-10T16:02:22.496Z,10.80
2018-11-10T16:04:57.327Z,10.80
2018-11-10T16:07:35.025Z,10.80
2018-11-10T16:10:11.316Z,10.90
2018-11-10T16:13:17.737Z,10.90
2018-11-10T16:15:55.144Z,10.90
2018-11-10T16:18:32.022Z,10.90
2018-11-10T16:21:08.083Z,10.80
2018-11-10T16:23:43.318Z,10.90
2018-11-10T16:26:21.423Z,10.90
2018-11-10T16:28:57.479Z,10.90
2018-11-10T16:31:32.309Z,10.90
2018-11-10T16:34:12.052Z,10.90
2018-11-10T16:37:50.369Z,11.00
2018-11-10T16:40:28.272Z,11.00
2018-11-10T16:43:04.333Z,10.90
2018-11-10T16:45:40.385Z,10.90
2018-11-10T16:48:18.288Z,10.90
2018-11-10T17:08:42.212Z,10.80
2018-11-10T17:11:20.277Z,10.80
2018-11-10T17:31:16.309Z,10.80
2018-11-10T17:33:52.363Z,10.90
2018-11-10T17:53:45.321Z,10.70
2018-11-10T17:56:21.382Z,10.80
2018-11-10T17:58:55.399Z,10.70
2018-11-10T18:01:30.898Z,10.70
2018-11-10T18:04:06.859Z,10.80
2018-11-10T18:06:40.493Z,10.80
2018-11-10T18:09:16.344Z,10.70
2018-11-10T18:14:44.433Z,10.60
2018-11-10T18:34:38.419Z,10.70
2018-11-10T18:37:14.279Z,10.70
2018-11-10T18:57:07.532Z,10.60
2018-11-10T18:59:42.473Z,10.60
2018-11-10T19:02:20.369Z,10.70
2018-11-10T19:04:55.402Z,10.70
2018-11-10T19:07:31.460Z,10.80
2018-11-10T19:27:23.393Z,10.60
2018-11-10T19:30:00.485Z,10.60
2018-11-10T19:49:53.435Z,10.50
2018-11-10T19:52:27.442Z,10.40
2018-11-10T20:12:21.427Z,10.40
2018-11-10T20:14:57.486Z,10.30
2018-11-10T20:17:32.524Z,10.40
2018-11-10T20:20:08.374Z,10.40
2018-11-10T20:22:44.432Z,10.40
2018-11-10T20:42:42.311Z,10.50
2018-11-10T20:45:22.874Z,10.50
2018-11-10T21:05:17.466Z,10.30
2018-11-10T21:07:51.483Z,10.30
2018-11-10T21:10:26.977Z,10.30
2018-11-10T21:13:02.621Z,10.30
2018-11-10T21:15:39.449Z,10.30
2018-11-10T21:35:33.715Z,10.20
2018-11-10T21:38:09.497Z,10.20
2018-11-10T21:58:00.598Z,10.30
2018-11-10T22:00:37.277Z,10.30
2018-11-10T22:20:32.483Z,10.50
2018-11-10T22:23:09.639Z,10.50
2018-11-10T22:43:02.526Z,10.30
2018-11-10T22:45:37.562Z,10.20
2018-11-10T22:48:14.439Z,10.20
2018-11-10T23:08:08.622Z,10.20
2018-11-10T23:10:46.521Z,10.30
2018-11-10T23:30:49.516Z,10.20
2018-11-10T23:33:24.351Z,10.20
2018-11-10T23:53:18.327Z,10.20
2018-11-10T23:55:54.593Z,10.30
2018-11-10T23:58:30.861Z,10.30
